CYEG/YEG METAR and TAF weather

Enter ICAO airport designator
Station Type Date Time Source
CYEG METAR 2019/08/24 21:00 UTC NOAA

CYEG 242100Z 30007KT 240V360 20SM FEW040TCU SCT160 SCT250 21/11 A2971 RMK TCU2AC1CI1 CI TR SH DIST E QUADS SLP068 DENSITY ALT 3900FT


Station Type Date Time Source
CYEG Decoded METAR 2019/08/24 21:00 UTC NOAA

Station name not available
Aug 24, 2019 - 05:00 PM EDT / 2019.08.24 2100 UTC
Wind: from the WNW (300 degrees) at 8 MPH (7 KT) (direction variable):0
Visibility: 20 mile(s):0
Sky conditions: partly cloudy
Weather: Towering cumulus clouds observed
Temperature: 69 F (21 C)
Dew Point: 51 F (11 C)
Relative Humidity: 52%
Pressure (altimeter): 29.71 in. Hg (1006 hPa)
ob: CYEG 242100Z 30007KT 240V360 20SM FEW040TCU SCT160 SCT250 21/11 A2971 RMK TCU2AC1CI1 CI TR SH DIST E QUADS SLP068 DENSITY ALT 3900FT
cycle: 21

Station Type Date Time Source
CYEG TAF 2019/08/24 21:40 UTC NOAA

TAF CYEG 242038Z 2421/2518 26008KT P6SM SCT040 BKN140
TEMPO 2421/2503 P6SM -SHRA BKN040 BKN140 PROB30 2421/2503 4SM TSRA BKN040CB OVC120
FM250300 30006KT P6SM SCT050 BKN140
FM251200 28006KT P6SM SCT050
TEMPO 2512/2516 2SM BR BKN050
FM251600 29012KT P6SM SCT040
RMK NXT FCST BY 250000Z

Example: see airport list